sensor_id;sensor_type;location;lat;lon;timestamp;temperature;humidity
28193;DHT22;15473;50.840;3.396;2023-03-01T00:00:47;-1.80;99.90
28193;DHT22;15473;50.840;3.396;2023-03-01T00:03:38;-1.80;99.90
28193;DHT22;15473;50.840;3.396;2023-03-01T00:06:30;-1.80;99.90
28193;DHT22;15473;50.840;3.396;2023-03-01T00:09:16;-1.80;99.90
28193;DHT22;15473;50.840;3.396;2023-03-01T00:12:07;-1.80;99.90
28193;DHT22;15473;50.840;3.396;2023-03-01T00:14:54;-1.80;99.90
28193;DHT22;15473;50.840;3.396;2023-03-01T00:17:40;-1.80;99.90
28193;DHT22;15473;50.840;3.396;2023-03-01T00:20:25;-1.80;99.90
28193;DHT22;15473;50.840;3.396;2023-03-01T00:23:15;-1.90;99.90
28193;DHT22;15473;50.840;3.396;2023-03-01T00:26:07;-1.90;99.90
28193;DHT22;15473;50.840;3.396;2023-03-01T00:28:57;-1.90;99.90
28193;DHT22;15473;50.840;3.396;2023-03-01T00:31:49;-1.90;99.90
28193;DHT22;15473;50.840;3.396;2023-03-01T00:34:34;-1.90;99.90
28193;DHT22;15473;50.840;3.396;2023-03-01T00:37:20;-1.90;99.90
28193;DHT22;15473;50.840;3.396;2023-03-01T00:40:09;-1.90;99.90
28193;DHT22;15473;50.840;3.396;2023-03-01T00:42:55;-2.00;99.90
28193;DHT22;15473;50.840;3.396;2023-03-01T00:45:47;-2.00;99.90
28193;DHT22;15473;50.840;3.396;2023-03-01T00:48:32;-2.00;99.90
28193;DHT22;15473;50.840;3.396;2023-03-01T00:51:26;-2.00;99.90
28193;DHT22;15473;50.840;3.396;2023-03-01T00:54:18;-2.00;99.90
28193;DHT22;15473;50.840;3.396;2023-03-01T00:57:03;-2.00;99.90
28193;DHT22;15473;50.840;3.396;2023-03-01T01:00:01;-2.00;99.90
28193;DHT22;15473;50.840;3.396;2023-03-01T01:02:48;-2.00;99.90
28193;DHT22;15473;50.840;3.396;2023-03-01T01:05:34;-2.10;99.90
28193;DHT22;15473;50.840;3.396;2023-03-01T01:08:20;-2.10;99.90
28193;DHT22;15473;50.840;3.396;2023-03-01T01:11:12;-2.10;99.90
28193;DHT22;15473;50.840;3.396;2023-03-01T01:14:05;-2.10;99.90
28193;DHT22;15473;50.840;3.396;2023-03-01T01:16:56;-2.10;99.90
28193;DHT22;15473;50.840;3.396;2023-03-01T01:19:42;-2.10;99.90
28193;DHT22;15473;50.840;3.396;2023-03-01T01:22:31;-2.10;99.90
28193;DHT22;15473;50.840;3.396;2023-03-01T01:25:16;-2.20;99.90
28193;DHT22;15473;50.840;3.396;2023-03-01T01:28:08;-2.20;99.90
28193;DHT22;15473;50.840;3.396;2023-03-01T01:30:55;-2.20;99.90
28193;DHT22;15473;50.840;3.396;2023-03-01T01:33:40;-2.20;99.90
28193;DHT22;15473;50.840;3.396;2023-03-01T01:36:28;-2.20;99.90
28193;DHT22;15473;50.840;3.396;2023-03-01T01:39:21;-2.20;99.90
28193;DHT22;15473;50.840;3.396;2023-03-01T01:42:12;-2.30;99.90
28193;DHT22;15473;50.840;3.396;2023-03-01T01:48:09;-2.30;99.90
28193;DHT22;15473;50.840;3.396;2023-03-01T01:51:01;-2.30;99.90
28193;DHT22;15473;50.840;3.396;2023-03-01T01:53:50;-2.30;99.90
28193;DHT22;15473;50.840;3.396;2023-03-01T01:56:35;-2.30;99.90
28193;DHT22;15473;50.840;3.396;2023-03-01T01:59:28;-2.30;99.90
28193;DHT22;15473;50.840;3.396;2023-03-01T02:02:22;-2.30;99.90
28193;DHT22;15473;50.840;3.396;2023-03-01T02:05:19;-2.40;99.90
28193;DHT22;15473;50.840;3.396;2023-03-01T02:08:03;-2.40;99.90
28193;DHT22;15473;50.840;3.396;2023-03-01T02:10:50;-2.40;99.90
28193;DHT22;15473;50.840;3.396;2023-03-01T02:13:43;-2.40;99.90
28193;DHT22;15473;50.840;3.396;2023-03-01T02:16:30;-2.40;99.90
28193;DHT22;15473;50.840;3.396;2023-03-01T02:22:24;-2.40;99.90
28193;DHT22;15473;50.840;3.396;2023-03-01T02:25:24;-2.40;99.90
28193;DHT22;15473;50.840;3.396;2023-03-01T02:31:10;-2.50;99.90
28193;DHT22;15473;50.840;3.396;2023-03-01T02:34:18;-2.50;99.90
28193;DHT22;15473;50.840;3.396;2023-03-01T02:37:10;-2.50;99.90
28193;DHT22;15473;50.840;3.396;2023-03-01T02:40:04;-2.50;99.90
28193;DHT22;15473;50.840;3.396;2023-03-01T02:42:54;-2.50;99.90
28193;DHT22;15473;50.840;3.396;2023-03-01T02:45:47;-2.50;99.90
28193;DHT22;15473;50.840;3.396;2023-03-01T02:48:41;-2.50;99.90
28193;DHT22;15473;50.840;3.396;2023-03-01T02:51:42;-2.50;99.90
28193;DHT22;15473;50.840;3.396;2023-03-01T02:54:47;-2.50;99.90
28193;DHT22;15473;50.840;3.396;2023-03-01T02:57:40;-2.50;99.90
28193;DHT22;15473;50.840;3.396;2023-03-01T03:00:35;-2.60;99.90
28193;DHT22;15473;50.840;3.396;2023-03-01T03:03:24;-2.60;99.90
28193;DHT22;15473;50.840;3.396;2023-03-01T03:06:09;-2.60;99.90
28193;DHT22;15473;50.840;3.396;2023-03-01T03:08:55;-2.60;99.90
28193;DHT22;15473;50.840;3.396;2023-03-01T03:11:42;-2.60;99.90
28193;DHT22;15473;50.840;3.396;2023-03-01T03:14:28;-2.60;99.90
28193;DHT22;15473;50.840;3.396;2023-03-01T03:17:21;-2.60;99.90
28193;DHT22;15473;50.840;3.396;2023-03-01T03:20:13;-2.60;99.90
28193;DHT22;15473;50.840;3.396;2023-03-01T03:23:01;-2.60;99.90
28193;DHT22;15473;50.840;3.396;2023-03-01T03:25:51;-2.60;99.90
28193;DHT22;15473;50.840;3.396;2023-03-01T03:28:39;-2.60;99.90
28193;DHT22;15473;50.840;3.396;2023-03-01T03:31:32;-2.60;99.90
28193;DHT22;15473;50.840;3.396;2023-03-01T03:34:23;-2.70;99.90
28193;DHT22;15473;50.840;3.396;2023-03-01T03:37:10;-2.70;99.90
28193;DHT22;15473;50.840;3.396;2023-03-01T03:40:03;-2.70;99.90
28193;DHT22;15473;50.840;3.396;2023-03-01T03:42:54;-2.70;99.90
28193;DHT22;15473;50.840;3.396;2023-03-01T03:45:47;-2.70;99.90
28193;DHT22;15473;50.840;3.396;2023-03-01T03:48:43;-2.70;99.90
28193;DHT22;15473;50.840;3.396;2023-03-01T03:51:29;-2.70;99.90
28193;DHT22;15473;50.840;3.396;2023-03-01T03:54:14;-2.70;99.90
28193;DHT22;15473;50.840;3.396;2023-03-01T03:57:06;-2.70;99.90
28193;DHT22;15473;50.840;3.396;2023-03-01T03:59:53;-2.80;99.90
28193;DHT22;15473;50.840;3.396;2023-03-01T04:02:40;-2.70;99.90
28193;DHT22;15473;50.840;3.396;2023-03-01T04:05:26;-2.80;99.90
28193;DHT22;15473;50.840;3.396;2023-03-01T04:08:12;-2.80;99.90
28193;DHT22;15473;50.840;3.396;2023-03-01T04:11:00;-2.80;99.90
28193;DHT22;15473;50.840;3.396;2023-03-01T04:13:49;-2.80;99.90
28193;DHT22;15473;50.840;3.396;2023-03-01T04:16:41;-2.80;99.90
28193;DHT22;15473;50.840;3.396;2023-03-01T04:19:26;-2.80;99.90
28193;DHT22;15473;50.840;3.396;2023-03-01T04:22:13;-2.80;99.90
28193;DHT22;15473;50.840;3.396;2023-03-01T04:25:01;-2.80;99.90
28193;DHT22;15473;50.840;3.396;2023-03-01T04:27:50;-2.80;99.90
28193;DHT22;15473;50.840;3.396;2023-03-01T04:30:36;-2.80;99.90
28193;DHT22;15473;50.840;3.396;2023-03-01T04:33:22;-2.80;99.90
28193;DHT22;15473;50.840;3.396;2023-03-01T04:36:15;-2.80;99.90
28193;DHT22;15473;50.840;3.396;2023-03-01T04:39:08;-2.80;99.90
28193;DHT22;15473;50.840;3.396;2023-03-01T04:42:02;-2.80;99.90
28193;DHT22;15473;50.840;3.396;2023-03-01T04:44:48;-2.90;99.90
28193;DHT22;15473;50.840;3.396;2023-03-01T04:47:42;-2.90;99.90
28193;DHT22;15473;50.840;3.396;2023-03-01T04:50:34;-2.90;99.90
28193;DHT22;15473;50.840;3.396;2023-03-01T04:53:23;-2.90;99.90
28193;DHT22;15473;50.840;3.396;2023-03-01T04:56:15;-2.90;99.90
28193;DHT22;15473;50.840;3.396;2023-03-01T04:59:02;-2.90;99.90
28193;DHT22;15473;50.840;3.396;2023-03-01T05:02:02;-3.00;99.90
28193;DHT22;15473;50.840;3.396;2023-03-01T05:04:47;-2.90;99.90
28193;DHT22;15473;50.840;3.396;2023-03-01T05:07:34;-3.00;99.90
28193;DHT22;15473;50.840;3.396;2023-03-01T05:10:27;-3.00;99.90
28193;DHT22;15473;50.840;3.396;2023-03-01T05:13:16;-2.90;99.90
28193;DHT22;15473;50.840;3.396;2023-03-01T05:16:08;-3.00;99.90
28193;DHT22;15473;50.840;3.396;2023-03-01T05:18:57;-3.00;99.90
28193;DHT22;15473;50.840;3.396;2023-03-01T05:21:49;-3.00;99.90
28193;DHT22;15473;50.840;3.396;2023-03-01T05:24:47;-3.00;99.90
28193;DHT22;15473;50.840;3.396;2023-03-01T05:27:40;-3.00;99.90
28193;DHT22;15473;50.840;3.396;2023-03-01T05:30:25;-3.00;99.90
28193;DHT22;15473;50.840;3.396;2023-03-01T05:33:15;-3.00;99.90
28193;DHT22;15473;50.840;3.396;2023-03-01T05:36:02;-3.00;99.90
28193;DHT22;15473;50.840;3.396;2023-03-01T05:38:53;-3.00;99.90
28193;DHT22;15473;50.840;3.396;2023-03-01T05:41:42;-3.00;99.90
28193;DHT22;15473;50.840;3.396;2023-03-01T05:44:34;-3.00;99.90
28193;DHT22;15473;50.840;3.396;2023-03-01T05:47:20;-3.00;99.90
28193;DHT22;15473;50.840;3.396;2023-03-01T05:50:06;-3.00;99.90
28193;DHT22;15473;50.840;3.396;2023-03-01T05:56:03;-3.00;99.90
28193;DHT22;15473;50.840;3.396;2023-03-01T05:58:56;-3.10;99.90
28193;DHT22;15473;50.840;3.396;2023-03-01T06:01:42;-3.10;99.90
28193;DHT22;15473;50.840;3.396;2023-03-01T06:04:34;-3.10;99.90
28193;DHT22;15473;50.840;3.396;2023-03-01T06:07:26;-3.10;99.90
28193;DHT22;15473;50.840;3.396;2023-03-01T06:10:18;-3.10;99.90
28193;DHT22;15473;50.840;3.396;2023-03-01T06:13:10;-3.20;99.90
28193;DHT22;15473;50.840;3.396;2023-03-01T06:15:56;-3.20;99.90
28193;DHT22;15473;50.840;3.396;2023-03-01T06:18:41;-3.20;99.90
28193;DHT22;15473;50.840;3.396;2023-03-01T06:21:27;-3.20;99.90
28193;DHT22;15473;50.840;3.396;2023-03-01T06:24:19;-3.20;99.90
28193;DHT22;15473;50.840;3.396;2023-03-01T06:27:05;-3.20;99.90
28193;DHT22;15473;50.840;3.396;2023-03-01T06:29:57;-3.20;99.90
28193;DHT22;15473;50.840;3.396;2023-03-01T06:32:49;-3.20;99.90
28193;DHT22;15473;50.840;3.396;2023-03-01T06:35:34;-3.20;99.90
28193;DHT22;15473;50.840;3.396;2023-03-01T06:38:26;-3.20;99.90
28193;DHT22;15473;50.840;3.396;2023-03-01T06:41:12;-3.20;99.90
28193;DHT22;15473;50.840;3.396;2023-03-01T06:43:59;-3.20;99.90
28193;DHT22;15473;50.840;3.396;2023-03-01T06:46:45;-3.20;99.90
28193;DHT22;15473;50.840;3.396;2023-03-01T06:49:36;-3.10;99.90
28193;DHT22;15473;50.840;3.396;2023-03-01T06:52:28;-3.10;99.90
28193;DHT22;15473;50.840;3.396;2023-03-01T06:55:16;-3.10;99.90
28193;DHT22;15473;50.840;3.396;2023-03-01T06:58:02;-3.00;99.90
28193;DHT22;15473;50.840;3.396;2023-03-01T07:00:53;-3.00;99.90
28193;DHT22;15473;50.840;3.396;2023-03-01T07:03:47;-2.90;99.90
28193;DHT22;15473;50.840;3.396;2023-03-01T07:06:33;-2.90;99.90
28193;DHT22;15473;50.840;3.396;2023-03-01T07:09:18;-2.90;99.90
28193;DHT22;15473;50.840;3.396;2023-03-01T07:12:10;-2.80;99.90
28193;DHT22;15473;50.840;3.396;2023-03-01T07:14:56;-2.80;99.90
28193;DHT22;15473;50.840;3.396;2023-03-01T07:17:47;-2.70;99.90
28193;DHT22;15473;50.840;3.396;2023-03-01T07:20:41;-2.70;99.90
28193;DHT22;15473;50.840;3.396;2023-03-01T07:23:33;-2.60;99.90
28193;DHT22;15473;50.840;3.396;2023-03-01T07:26:18;-2.50;99.90
28193;DHT22;15473;50.840;3.396;2023-03-01T07:29:06;-2.50;99.90
28193;DHT22;15473;50.840;3.396;2023-03-01T07:31:52;-2.40;99.90
28193;DHT22;15473;50.840;3.396;2023-03-01T07:34:41;-2.40;99.90
28193;DHT22;15473;50.840;3.396;2023-03-01T07:37:27;-2.30;99.90
28193;DHT22;15473;50.840;3.396;2023-03-01T07:40:12;-2.20;99.90
28193;DHT22;15473;50.840;3.396;2023-03-01T07:43:05;-2.10;99.90
28193;DHT22;15473;50.840;3.396;2023-03-01T07:45:50;-2.00;99.90
28193;DHT22;15473;50.840;3.396;2023-03-01T07:48:43;-1.90;99.90
28193;DHT22;15473;50.840;3.396;2023-03-01T07:51:34;-1.80;99.90
28193;DHT22;15473;50.840;3.396;2023-03-01T07:54:26;-1.70;99.90
28193;DHT22;15473;50.840;3.396;2023-03-01T07:57:13;-1.50;99.90
28193;DHT22;15473;50.840;3.396;2023-03-01T08:00:06;-1.40;99.90
28193;DHT22;15473;50.840;3.396;2023-03-01T08:03:01;-1.30;99.90
28193;DHT22;15473;50.840;3.396;2023-03-01T08:05:50;-1.20;99.90
28193;DHT22;15473;50.840;3.396;2023-03-01T08:08:42;-1.00;99.90
28193;DHT22;15473;50.840;3.396;2023-03-01T08:11:28;-0.90;99.90
28193;DHT22;15473;50.840;3.396;2023-03-01T08:14:13;-0.80;99.90
28193;DHT22;15473;50.840;3.396;2023-03-01T08:17:05;-0.60;99.90
28193;DHT22;15473;50.840;3.396;2023-03-01T08:19:57;-0.50;99.90
28193;DHT22;15473;50.840;3.396;2023-03-01T08:22:48;-0.40;99.90
28193;DHT22;15473;50.840;3.396;2023-03-01T08:25:33;-0.30;99.90
28193;DHT22;15473;50.840;3.396;2023-03-01T08:28:21;-0.10;99.90
28193;DHT22;15473;50.840;3.396;2023-03-01T08:31:24;0.00;99.90
28193;DHT22;15473;50.840;3.396;2023-03-01T08:34:02;0.20;99.90
28193;DHT22;15473;50.840;3.396;2023-03-01T08:36:49;0.30;99.90
28193;DHT22;15473;50.840;3.396;2023-03-01T08:39:36;0.50;99.90
28193;DHT22;15473;50.840;3.396;2023-03-01T08:42:24;0.60;99.90
28193;DHT22;15473;50.840;3.396;2023-03-01T08:45:12;0.90;99.90
28193;DHT22;15473;50.840;3.396;2023-03-01T08:48:06;1.10;99.90
28193;DHT22;15473;50.840;3.396;2023-03-01T08:50:55;1.30;99.90
28193;DHT22;15473;50.840;3.396;2023-03-01T08:53:41;1.50;99.90
28193;DHT22;15473;50.840;3.396;2023-03-01T08:56:28;1.70;99.90
28193;DHT22;15473;50.840;3.396;2023-03-01T08:59:15;1.90;99.90
28193;DHT22;15473;50.840;3.396;2023-03-01T09:02:05;2.10;99.90
28193;DHT22;15473;50.840;3.396;2023-03-01T09:04:57;2.20;99.90
28193;DHT22;15473;50.840;3.396;2023-03-01T09:07:42;2.30;99.90
28193;DHT22;15473;50.840;3.396;2023-03-01T09:10:36;2.40;99.90
28193;DHT22;15473;50.840;3.396;2023-03-01T09:13:28;2.50;99.90
28193;DHT22;15473;50.840;3.396;2023-03-01T09:16:17;2.60;99.90
28193;DHT22;15473;50.840;3.396;2023-03-01T09:19:10;2.70;99.90
28193;DHT22;15473;50.840;3.396;2023-03-01T09:21:56;2.80;99.90
28193;DHT22;15473;50.840;3.396;2023-03-01T09:24:49;2.90;99.90
28193;DHT22;15473;50.840;3.396;2023-03-01T09:27:38;3.10;99.90
28193;DHT22;15473;50.840;3.396;2023-03-01T09:30:24;3.30;99.90
28193;DHT22;15473;50.840;3.396;2023-03-01T09:33:16;3.40;99.90
28193;DHT22;15473;50.840;3.396;2023-03-01T09:36:10;3.60;99.90
28193;DHT22;15473;50.840;3.396;2023-03-01T09:39:01;3.80;99.90
28193;DHT22;15473;50.840;3.396;2023-03-01T09:41:49;4.00;99.90
28193;DHT22;15473;50.840;3.396;2023-03-01T09:44:51;4.10;99.90
28193;DHT22;15473;50.840;3.396;2023-03-01T09:47:36;4.40;99.90
28193;DHT22;15473;50.840;3.396;2023-03-01T09:50:24;4.60;99.90
28193;DHT22;15473;50.840;3.396;2023-03-01T09:53:16;4.80;99.90
28193;DHT22;15473;50.840;3.396;2023-03-01T09:56:10;5.10;99.90
28193;DHT22;15473;50.840;3.396;2023-03-01T10:01:55;5.60;99.90
28193;DHT22;15473;50.840;3.396;2023-03-01T10:04:50;5.80;99.90
28193;DHT22;15473;50.840;3.396;2023-03-01T10:07:45;6.10;99.90
28193;DHT22;15473;50.840;3.396;2023-03-01T10:10:38;6.50;99.90
28193;DHT22;15473;50.840;3.396;2023-03-01T10:13:37;7.00;99.90
28193;DHT22;15473;50.840;3.396;2023-03-01T10:19:14;9.10;99.90
28193;DHT22;15473;50.840;3.396;2023-03-01T10:22:11;11.20;99.90
28193;DHT22;15473;50.840;3.396;2023-03-01T10:24:52;12.60;99.90
28193;DHT22;15473;50.840;3.396;2023-03-01T10:27:44;13.60;99.90
28193;DHT22;15473;50.840;3.396;2023-03-01T10:30:39;13.70;99.90
28193;DHT22;15473;50.840;3.396;2023-03-01T10:33:35;14.30;99.90
28193;DHT22;15473;50.840;3.396;2023-03-01T10:36:20;15.20;99.90
28193;DHT22;15473;50.840;3.396;2023-03-01T10:39:27;16.10;99.90
28193;DHT22;15473;50.840;3.396;2023-03-01T10:41:55;17.70;99.90
28193;DHT22;15473;50.840;3.396;2023-03-01T10:44:48;18.90;99.90
28193;DHT22;15473;50.840;3.396;2023-03-01T10:47:34;19.70;99.90
28193;DHT22;15473;50.840;3.396;2023-03-01T10:50:25;20.40;99.90
28193;DHT22;15473;50.840;3.396;2023-03-01T10:53:55;20.90;99.90
28193;DHT22;15473;50.840;3.396;2023-03-01T10:56:03;21.10;99.90
28193;DHT22;15473;50.840;3.396;2023-03-01T10:59:05;21.30;99.90
28193;DHT22;15473;50.840;3.396;2023-03-01T11:05:13;21.50;99.90
28193;DHT22;15473;50.840;3.396;2023-03-01T11:07:48;21.10;99.90
28193;DHT22;15473;50.840;3.396;2023-03-01T11:10:35;20.70;99.90
28193;DHT22;15473;50.840;3.396;2023-03-01T11:13:20;20.30;99.90
28193;DHT22;15473;50.840;3.396;2023-03-01T11:16:12;20.00;99.90
28193;DHT22;15473;50.840;3.396;2023-03-01T11:22:07;19.70;99.90
28193;DHT22;15473;50.840;3.396;2023-03-01T11:24:51;19.80;99.90
28193;DHT22;15473;50.840;3.396;2023-03-01T11:27:44;19.90;99.90
28193;DHT22;15473;50.840;3.396;2023-03-01T11:30:38;20.10;99.90
28193;DHT22;15473;50.840;3.396;2023-03-01T11:36:27;20.90;99.90
28193;DHT22;15473;50.840;3.396;2023-03-01T11:42:13;22.30;99.90
28193;DHT22;15473;50.840;3.396;2023-03-01T11:44:59;22.30;99.90
28193;DHT22;15473;50.840;3.396;2023-03-01T11:50:47;24.70;99.90
28193;DHT22;15473;50.840;3.396;2023-03-01T11:56:34;26.70;98.90
28193;DHT22;15473;50.840;3.396;2023-03-01T11:59:36;27.50;97.20
28193;DHT22;15473;50.840;3.396;2023-03-01T12:02:27;28.20;95.70
28193;DHT22;15473;50.840;3.396;2023-03-01T12:05:32;28.70;94.40
28193;DHT22;15473;50.840;3.396;2023-03-01T12:08:35;29.10;93.00
28193;DHT22;15473;50.840;3.396;2023-03-01T12:11:32;29.50;92.40
28193;DHT22;15473;50.840;3.396;2023-03-01T12:20:34;29.90;90.30
28193;DHT22;15473;50.840;3.396;2023-03-01T12:37:59;27.30;88.10
28193;DHT22;15473;50.840;3.396;2023-03-01T12:40:51;26.50;90.80
28193;DHT22;15473;50.840;3.396;2023-03-01T12:43:36;25.60;91.70
28193;DHT22;15473;50.840;3.396;2023-03-01T12:49:35;24.50;92.70
28193;DHT22;15473;50.840;3.396;2023-03-01T12:52:40;24.50;93.90
28193;DHT22;15473;50.840;3.396;2023-03-01T12:55:18;24.60;94.20
28193;DHT22;15473;50.840;3.396;2023-03-01T12:58:15;24.70;93.10
28193;DHT22;15473;50.840;3.396;2023-03-01T13:12:46;26.20;92.00
28193;DHT22;15473;50.840;3.396;2023-03-01T13:15:32;26.40;92.50
28193;DHT22;15473;50.840;3.396;2023-03-01T13:21:13;26.70;92.20
28193;DHT22;15473;50.840;3.396;2023-03-01T13:24:04;26.80;92.20
28193;DHT22;15473;50.840;3.396;2023-03-01T13:29:58;26.80;93.00
28193;DHT22;15473;50.840;3.396;2023-03-01T13:32:52;26.80;91.70
28193;DHT22;15473;50.840;3.396;2023-03-01T13:35:43;26.70;92.60
28193;DHT22;15473;50.840;3.396;2023-03-01T13:38:44;26.70;92.40
28193;DHT22;15473;50.840;3.396;2023-03-01T13:44:33;26.60;91.60
28193;DHT22;15473;50.840;3.396;2023-03-01T13:47:20;26.40;91.90
28193;DHT22;15473;50.840;3.396;2023-03-01T13:50:15;26.30;92.50
28193;DHT22;15473;50.840;3.396;2023-03-01T13:53:01;26.30;93.60
28193;DHT22;15473;50.840;3.396;2023-03-01T13:55:58;26.30;92.60
28193;DHT22;15473;50.840;3.396;2023-03-01T13:58:53;26.40;93.30
28193;DHT22;15473;50.840;3.396;2023-03-01T14:02:31;26.40;92.60
28193;DHT22;15473;50.840;3.396;2023-03-01T14:04:33;26.50;92.70
28193;DHT22;15473;50.840;3.396;2023-03-01T14:07:28;26.60;93.00
28193;DHT22;15473;50.840;3.396;2023-03-01T14:10:14;26.50;92.10
28193;DHT22;15473;50.840;3.396;2023-03-01T14:13:05;26.50;92.90
28193;DHT22;15473;50.840;3.396;2023-03-01T14:16:57;26.40;93.10
28193;DHT22;15473;50.840;3.396;2023-03-01T14:19:00;26.40;92.80
28193;DHT22;15473;50.840;3.396;2023-03-01T14:21:44;26.40;93.20
28193;DHT22;15473;50.840;3.396;2023-03-01T14:24:30;26.40;92.50
28193;DHT22;15473;50.840;3.396;2023-03-01T14:27:30;26.20;93.10
28193;DHT22;15473;50.840;3.396;2023-03-01T14:30:19;26.10;93.10
28193;DHT22;15473;50.840;3.396;2023-03-01T14:33:05;26.10;93.40
28193;DHT22;15473;50.840;3.396;2023-03-01T14:38:46;25.80;92.50
28193;DHT22;15473;50.840;3.396;2023-03-01T14:41:29;25.70;91.80
28193;DHT22;15473;50.840;3.396;2023-03-01T14:44:23;25.50;92.20
28193;DHT22;15473;50.840;3.396;2023-03-01T14:47:20;25.50;93.40
28193;DHT22;15473;50.840;3.396;2023-03-01T14:50:05;25.40;94.00
28193;DHT22;15473;50.840;3.396;2023-03-01T14:52:52;25.30;92.60
28193;DHT22;15473;50.840;3.396;2023-03-01T14:55:46;25.30;93.50
28193;DHT22;15473;50.840;3.396;2023-03-01T14:58:32;25.10;91.10
28193;DHT22;15473;50.840;3.396;2023-03-01T15:01:22;25.00;93.90
28193;DHT22;15473;50.840;3.396;2023-03-01T15:04:14;24.90;94.70
28193;DHT22;15473;50.840;3.396;2023-03-01T15:07:09;24.70;94.20
28193;DHT22;15473;50.840;3.396;2023-03-01T15:10:01;24.40;92.30
28193;DHT22;15473;50.840;3.396;2023-03-01T15:12:47;24.20;92.90
28193;DHT22;15473;50.840;3.396;2023-03-01T15:15:45;23.90;91.90
28193;DHT22;15473;50.840;3.396;2023-03-01T15:18:43;23.60;92.40
28193;DHT22;15473;50.840;3.396;2023-03-01T15:21:32;23.10;92.70
28193;DHT22;15473;50.840;3.396;2023-03-01T15:24:23;22.50;93.20
28193;DHT22;15473;50.840;3.396;2023-03-01T15:27:18;21.80;94.10
28193;DHT22;15473;50.840;3.396;2023-03-01T15:30:06;21.00;94.10
28193;DHT22;15473;50.840;3.396;2023-03-01T15:36:02;19.40;94.60
28193;DHT22;15473;50.840;3.396;2023-03-01T15:38:55;18.50;95.20
28193;DHT22;15473;50.840;3.396;2023-03-01T15:41:47;17.80;95.80
28193;DHT22;15473;50.840;3.396;2023-03-01T15:44:34;17.10;97.10
28193;DHT22;15473;50.840;3.396;2023-03-01T15:47:27;16.60;97.00
28193;DHT22;15473;50.840;3.396;2023-03-01T15:50:22;16.00;97.80
28193;DHT22;15473;50.840;3.396;2023-03-01T15:53:11;15.40;98.60
28193;DHT22;15473;50.840;3.396;2023-03-01T15:55:59;14.90;99.30
28193;DHT22;15473;50.840;3.396;2023-03-01T15:58:44;14.40;99.90
28193;DHT22;15473;50.840;3.396;2023-03-01T16:01:30;14.00;99.90
28193;DHT22;15473;50.840;3.396;2023-03-01T16:04:29;13.60;99.90
28193;DHT22;15473;50.840;3.396;2023-03-01T16:07:20;13.20;99.90
28193;DHT22;15473;50.840;3.396;2023-03-01T16:10:06;12.80;99.90
28193;DHT22;15473;50.840;3.396;2023-03-01T16:12:51;12.40;99.90
28193;DHT22;15473;50.840;3.396;2023-03-01T16:15:37;12.10;99.90
28193;DHT22;15473;50.840;3.396;2023-03-01T16:18:30;11.80;99.90
28193;DHT22;15473;50.840;3.396;2023-03-01T16:21:20;11.40;99.90
28193;DHT22;15473;50.840;3.396;2023-03-01T16:24:09;11.20;99.90
28193;DHT22;15473;50.840;3.396;2023-03-01T16:26:55;10.90;99.90
28193;DHT22;15473;50.840;3.396;2023-03-01T16:29:47;10.60;99.90
28193;DHT22;15473;50.840;3.396;2023-03-01T16:32:40;10.40;99.90
28193;DHT22;15473;50.840;3.396;2023-03-01T16:35:26;10.20;99.90
28193;DHT22;15473;50.840;3.396;2023-03-01T16:38:18;9.90;99.90
28193;DHT22;15473;50.840;3.396;2023-03-01T16:41:15;9.70;99.90
28193;DHT22;15473;50.840;3.396;2023-03-01T16:43:57;9.50;99.90
28193;DHT22;15473;50.840;3.396;2023-03-01T16:46:43;9.20;99.90
28193;DHT22;15473;50.840;3.396;2023-03-01T16:49:29;9.10;99.90
28193;DHT22;15473;50.840;3.396;2023-03-01T16:52:21;8.90;99.90
28193;DHT22;15473;50.840;3.396;2023-03-01T16:55:09;8.70;99.90
28193;DHT22;15473;50.840;3.396;2023-03-01T16:57:56;8.50;99.90
28193;DHT22;15473;50.840;3.396;2023-03-01T17:00:42;8.40;99.90
28193;DHT22;15473;50.840;3.396;2023-03-01T17:03:33;8.20;99.90
28193;DHT22;15473;50.840;3.396;2023-03-01T17:06:25;8.10;99.90
28193;DHT22;15473;50.840;3.396;2023-03-01T17:09:15;7.90;99.90
28193;DHT22;15473;50.840;3.396;2023-03-01T17:12:01;7.70;99.90
28193;DHT22;15473;50.840;3.396;2023-03-01T17:14:53;7.50;99.90
28193;DHT22;15473;50.840;3.396;2023-03-01T17:17:45;7.30;99.90
28193;DHT22;15473;50.840;3.396;2023-03-01T17:20:38;7.10;99.90
28193;DHT22;15473;50.840;3.396;2023-03-01T17:23:26;6.90;99.90
28193;DHT22;15473;50.840;3.396;2023-03-01T17:26:11;6.70;99.90
28193;DHT22;15473;50.840;3.396;2023-03-01T17:29:03;6.50;99.90
28193;DHT22;15473;50.840;3.396;2023-03-01T17:31:55;6.30;99.90
28193;DHT22;15473;50.840;3.396;2023-03-01T17:34:40;6.10;99.90
28193;DHT22;15473;50.840;3.396;2023-03-01T17:37:33;5.90;99.90
28193;DHT22;15473;50.840;3.396;2023-03-01T17:40:20;5.70;99.90
28193;DHT22;15473;50.840;3.396;2023-03-01T17:43:06;5.60;99.90
28193;DHT22;15473;50.840;3.396;2023-03-01T17:45:57;5.40;99.90
28193;DHT22;15473;50.840;3.396;2023-03-01T17:48:49;5.20;99.90
28193;DHT22;15473;50.840;3.396;2023-03-01T17:51:41;5.10;99.90
28193;DHT22;15473;50.840;3.396;2023-03-01T17:54:32;4.90;99.90
28193;DHT22;15473;50.840;3.396;2023-03-01T17:57:18;4.70;99.90
28193;DHT22;15473;50.840;3.396;2023-03-01T18:00:04;4.60;99.90
28193;DHT22;15473;50.840;3.396;2023-03-01T18:02:56;4.40;99.90
28193;DHT22;15473;50.840;3.396;2023-03-01T18:05:41;4.30;99.90
28193;DHT22;15473;50.840;3.396;2023-03-01T18:08:27;4.20;99.90
28193;DHT22;15473;50.840;3.396;2023-03-01T18:11:32;4.10;99.90
28193;DHT22;15473;50.840;3.396;2023-03-01T18:14:19;3.90;99.90
28193;DHT22;15473;50.840;3.396;2023-03-01T18:17:05;3.80;99.90
28193;DHT22;15473;50.840;3.396;2023-03-01T18:19:59;3.70;99.90
28193;DHT22;15473;50.840;3.396;2023-03-01T18:22:45;3.60;99.90
28193;DHT22;15473;50.840;3.396;2023-03-01T18:25:33;3.50;99.90
28193;DHT22;15473;50.840;3.396;2023-03-01T18:28:25;3.40;99.90
28193;DHT22;15473;50.840;3.396;2023-03-01T18:31:13;3.30;99.90
28193;DHT22;15473;50.840;3.396;2023-03-01T18:34:01;3.20;99.90
28193;DHT22;15473;50.840;3.396;2023-03-01T18:36:53;3.10;99.90
28193;DHT22;15473;50.840;3.396;2023-03-01T18:39:39;3.00;99.90
28193;DHT22;15473;50.840;3.396;2023-03-01T18:42:32;2.90;99.90
28193;DHT22;15473;50.840;3.396;2023-03-01T18:45:19;2.80;99.90
28193;DHT22;15473;50.840;3.396;2023-03-01T18:48:04;2.70;99.90
28193;DHT22;15473;50.840;3.396;2023-03-01T18:50:56;2.70;99.90
28193;DHT22;15473;50.840;3.396;2023-03-01T18:53:45;2.60;99.90
28193;DHT22;15473;50.840;3.396;2023-03-01T18:56:37;2.50;99.90
28193;DHT22;15473;50.840;3.396;2023-03-01T18:59:29;2.40;99.90
28193;DHT22;15473;50.840;3.396;2023-03-01T19:02:21;2.40;99.90
28193;DHT22;15473;50.840;3.396;2023-03-01T19:05:08;2.20;99.90
28193;DHT22;15473;50.840;3.396;2023-03-01T19:08:00;2.20;99.90
28193;DHT22;15473;50.840;3.396;2023-03-01T19:10:59;2.10;99.90
28193;DHT22;15473;50.840;3.396;2023-03-01T19:13:41;2.10;99.90
28193;DHT22;15473;50.840;3.396;2023-03-01T19:16:32;2.00;99.90
28193;DHT22;15473;50.840;3.396;2023-03-01T19:19:25;1.90;99.90
28193;DHT22;15473;50.840;3.396;2023-03-01T19:22:16;1.90;99.90
28193;DHT22;15473;50.840;3.396;2023-03-01T19:25:02;1.80;99.90